Time;durP1;ratioP1;P1;durP2;ratioP2;P2;SDS_P1;SDS_P2;PMS_P1;PMS_P2;Temp;Humidity;BMP_temperature;BMP_pressure;BME280_temperature;BME280_humidity;BME280_pressure;Samples;Min_cycle;Max_cycle;Signal;HPM_P1;HPM_P2
2023/12/20 00:01:22;;;;;;;3.60;2.00;;;;;;;7.52;59.03;101113.44;4925717;29;20511;-75
2023/12/20 00:03:50;;;;;;;4.75;1.80;;;;;;;7.51;59.18;101113.56;4941344;28;20056;-75
2023/12/20 00:06:18;;;;;;;3.35;1.83;;;;;;;7.50;59.09;101123.59;4927637;29;20074;-75
2023/12/20 00:08:46;;;;;;;3.65;1.80;;;;;;;7.49;58.95;101120.97;4936834;29;20056;-74
2023/12/20 00:11:14;;;;;;;4.45;1.80;;;;;;;7.48;58.98;101116.50;4924887;29;20051;-74
2023/12/20 00:13:42;;;;;;;3.30;1.70;;;;;;;7.47;58.78;101117.47;4933477;29;20043;-74
2023/12/20 00:16:11;;;;;;;3.25;1.73;;;;;;;7.46;58.83;101113.88;4945728;28;20058;-75
2023/12/20 00:18:39;;;;;;;3.65;1.80;;;;;;;7.44;59.19;101118.56;4947822;28;20047;-72
2023/12/20 00:21:07;;;;;;;4.72;2.25;;;;;;;7.44;59.04;101115.81;4930772;29;20118;-74
2023/12/20 00:23:35;;;;;;;3.60;1.90;;;;;;;7.44;59.14;101115.81;4926921;29;20059;-73
2023/12/20 00:26:03;;;;;;;3.80;1.83;;;;;;;7.42;58.94;101117.81;4940587;28;20040;-73
2023/12/20 00:28:32;;;;;;;3.60;1.85;;;;;;;7.43;58.85;101124.13;4926306;29;20499;-72
2023/12/20 00:31:00;;;;;;;5.22;2.30;;;;;;;7.42;58.76;101142.31;4927202;29;20056;-74
2023/12/20 00:33:29;;;;;;;5.13;2.17;;;;;;;7.43;58.47;101143.19;4943056;28;20050;-73
2023/12/20 00:35:58;;;;;;;4.63;2.53;;;;;;;7.41;58.63;101143.28;4945397;29;20036;-73
2023/12/20 00:38:26;;;;;;;5.13;2.20;;;;;;;7.41;58.71;101142.41;4943512;28;20613;-71
2023/12/20 00:40:54;;;;;;;4.05;2.30;;;;;;;7.40;58.48;101152.44;4942155;28;20066;-73
2023/12/20 00:43:22;;;;;;;4.53;1.95;;;;;;;7.40;58.55;101151.56;4920851;29;20067;-71
2023/12/20 00:45:50;;;;;;;5.28;2.50;;;;;;;7.39;58.51;101147.97;4925124;29;20055;-71
2023/12/20 00:48:18;;;;;;;5.13;2.33;;;;;;;7.38;58.36;101140.78;4939387;28;20405;-74
2023/12/20 00:50:47;;;;;;;4.28;2.15;;;;;;;7.40;58.41;101144.25;4940676;28;20061;-74
2023/12/20 00:53:15;;;;;;;6.22;2.63;;;;;;;7.37;58.62;101141.75;4919255;29;20072;-72
2023/12/20 00:55:44;;;;;;;4.68;2.53;;;;;;;7.38;58.29;101148.06;4941755;29;20456;-74
2023/12/20 00:58:12;;;;;;;6.82;2.97;;;;;;;7.37;58.71;101154.47;4924769;29;20556;-73
2023/12/20 01:00:41;;;;;;;5.35;2.80;;;;;;;7.37;58.47;101146.31;4944932;28;20036;-73
2023/12/20 01:03:11;;;;;;;6.30;3.20;;;;;;;7.34;58.64;101139.25;4941319;29;20041;-73
2023/12/20 01:05:39;;;;;;;5.57;3.40;;;;;;;7.35;58.27;101142.84;4920079;29;20150;-73
2023/12/20 01:08:09;;;;;;;6.22;3.00;;;;;;;7.35;58.00;101143.72;4939507;28;20540;-73
2023/12/20 01:10:37;;;;;;;5.63;3.20;;;;;;;7.33;58.13;101145.69;4939044;28;20054;-73
2023/12/20 01:13:05;;;;;;;5.47;3.25;;;;;;;7.34;58.11;101158.31;4946245;28;20040;-73
2023/12/20 01:15:33;;;;;;;6.85;3.70;;;;;;;7.32;58.31;101157.53;4932107;28;20043;-73
2023/12/20 01:18:01;;;;;;;7.63;3.80;;;;;;;7.33;58.50;101150.25;4945814;29;20039;-72
2023/12/20 01:20:29;;;;;;;6.43;3.65;;;;;;;7.33;58.10;101148.41;4941881;28;20091;-73
2023/12/20 01:22:57;;;;;;;6.70;4.00;;;;;;;7.32;58.42;101157.53;4939089;29;20047;-74
2023/12/20 01:25:27;;;;;;;8.45;4.30;;;;;;;7.33;58.00;101159.28;4950698;28;20588;-73
2023/12/20 01:27:55;;;;;;;8.35;4.70;;;;;;;7.32;58.24;101160.25;4947534;28;20044;-73
2023/12/20 01:30:23;;;;;;;7.00;4.22;;;;;;;7.31;58.26;101154.91;4930673;28;20067;-73
2023/12/20 01:32:51;;;;;;;9.18;4.43;;;;;;;7.30;58.36;101161.34;4951944;28;20051;-73
2023/12/20 01:35:19;;;;;;;8.07;5.00;;;;;;;7.30;58.31;101167.66;4923815;29;20062;-73
2023/12/20 01:37:47;;;;;;;8.00;4.80;;;;;;;7.29;58.17;101163.19;4943521;28;20043;-74
2023/12/20 01:40:15;;;;;;;9.68;5.53;;;;;;;7.30;57.92;101170.38;4930794;29;20046;-73
2023/12/20 01:42:46;;;;;;;9.40;5.50;;;;;;;7.30;57.84;101172.22;4927258;29;20505;-73
2023/12/20 01:45:14;;;;;;;8.85;5.18;;;;;;;7.28;58.25;101177.78;4947638;28;20047;-72
2023/12/20 01:47:43;;;;;;;8.15;5.88;;;;;;;7.28;57.89;101175.06;4937464;28;20047;-73
2023/12/20 01:50:11;;;;;;;10.77;5.75;;;;;;;7.27;57.76;101173.31;4942988;28;20088;-73
2023/12/20 01:52:39;;;;;;;9.60;5.70;;;;;;;7.28;57.56;101174.19;4932353;29;20138;-73
2023/12/20 01:55:12;;;;;;;8.45;5.75;;;;;;;7.25;57.73;101186.16;4948072;28;20078;-73
2023/12/20 01:57:42;;;;;;;8.48;5.55;;;;;;;7.24;57.66;101184.44;4950646;28;20078;-73
2023/12/20 02:00:14;;;;;;;8.65;5.60;;;;;;;7.25;57.54;101182.56;4930531;28;20061;-72
2023/12/20 02:02:42;;;;;;;9.18;5.47;;;;;;;7.22;57.44;101177.31;4943097;29;20158;-73
2023/12/20 02:05:11;;;;;;;9.98;5.90;;;;;;;7.20;57.27;101182.88;4922957;29;20056;-75
2023/12/20 02:07:40;;;;;;;7.63;5.50;;;;;;;7.19;57.68;101186.56;4940004;28;20072;-73
2023/12/20 02:10:09;;;;;;;9.30;5.38;;;;;;;7.16;57.34;101182.22;4948196;28;20087;-72
2023/12/20 02:12:37;;;;;;;8.57;5.03;;;;;;;7.15;57.46;101194.09;4944626;28;20050;-73
2023/12/20 02:15:06;;;;;;;7.72;5.10;;;;;;;7.15;56.93;101194.09;4936358;29;20043;-73
2023/12/20 02:17:37;;;;;;;6.45;4.40;;;;;;;7.15;57.32;101191.38;4932805;29;20050;-74
2023/12/20 02:20:06;;;;;;;10.35;4.40;;;;;;;7.12;57.45;101194.28;4920858;29;20127;-73
2023/12/20 02:22:36;;;;;;;6.88;4.32;;;;;;;7.12;56.95;101194.28;4947974;29;20434;-73
2023/12/20 02:25:05;;;;;;;7.53;4.25;;;;;;;7.10;57.21;101198.97;4950713;28;20067;-72
2023/12/20 02:27:33;;;;;;;6.95;4.10;;;;;;;7.10;57.01;101195.38;4949241;28;20050;-73
2023/12/20 02:30:01;;;;;;;9.80;4.28;;;;;;;7.08;56.93;101190.03;4951081;28;20074;-72
2023/12/20 02:32:30;;;;;;;6.50;3.85;;;;;;;7.07;56.72;101195.59;4947651;28;20051;-73
2023/12/20 02:34:58;;;;;;;7.60;3.97;;;;;;;7.05;56.59;101201.13;4944729;28;20050;-74
2023/12/20 02:37:26;;;;;;;6.88;4.30;;;;;;;7.04;56.76;101198.50;4943793;28;20058;-73
2023/12/20 02:39:56;;;;;;;8.80;3.70;;;;;;;7.05;56.64;101205.69;4926057;29;20039;-72
2023/12/20 02:42:24;;;;;;;7.72;3.55;;;;;;;7.00;56.75;101200.56;4932063;29;20523;-74
2023/12/20 02:44:52;;;;;;;8.70;3.45;;;;;;;6.99;57.14;101207.00;4947158;28;20043;-74
2023/12/20 02:47:19;;;;;;;8.02;3.70;;;;;;;6.99;57.04;101208.84;4945953;28;20134;-73
2023/12/20 02:49:47;;;;;;;9.25;3.53;;;;;;;6.98;56.90;101207.97;4940336;29;20612;-73
2023/12/20 02:52:16;;;;;;;7.97;3.05;;;;;;;6.97;56.74;101203.50;4922595;29;20102;-74
2023/12/20 02:54:44;;;;;;;5.93;2.88;;;;;;;6.96;56.63;101206.31;4927024;29;20063;-73
2023/12/20 02:57:13;;;;;;;5.32;2.70;;;;;;;6.96;56.65;101201.75;4942537;28;20497;-74
2023/12/20 02:59:41;;;;;;;5.68;2.45;;;;;;;6.94;56.45;101200.97;4931882;29;20106;-73
2023/12/20 03:02:09;;;;;;;6.10;2.30;;;;;;;6.92;56.38;101197.50;4946881;29;20051;-72
2023/12/20 03:04:37;;;;;;;5.43;2.45;;;;;;;6.93;56.62;101191.09;4930475;29;20066;-72
2023/12/20 03:07:06;;;;;;;5.60;2.25;;;;;;;6.91;56.43;101195.75;4932819;29;20048;-73
2023/12/20 03:09:34;;;;;;;7.68;2.53;;;;;;;6.91;56.46;101194.88;4921579;29;20413;-72
2023/12/20 03:12:23;;;;;;;5.80;2.10;;;;;;;6.91;56.14;101205.75;4926234;28;20039;-73
2023/12/20 03:14:52;;;;;;;4.00;2.05;;;;;;;6.89;56.30;101203.13;4922358;29;20059;-72
2023/12/20 03:17:20;;;;;;;6.00;2.30;;;;;;;6.89;56.65;101213.13;4948370;28;20039;-72
2023/12/20 03:19:48;;;;;;;5.80;2.00;;;;;;;6.88;56.40;101208.66;4945451;28;20039;-73
2023/12/20 03:22:16;;;;;;;4.30;2.08;;;;;;;6.87;56.54;101201.47;4940245;28;20051;-73
2023/12/20 03:24:44;;;;;;;8.52;2.22;;;;;;;6.86;56.52;101195.16;4929093;29;20086;-72
2023/12/20 03:27:12;;;;;;;7.45;2.08;;;;;;;6.86;56.48;101197.03;4947456;28;20588;-73
2023/12/20 03:29:42;;;;;;;6.43;2.33;;;;;;;6.87;56.61;101198.75;4945915;29;20039;-73
2023/12/20 03:32:10;;;;;;;7.20;2.35;;;;;;;6.84;56.58;101202.56;4921698;29;20071;-72
2023/12/20 03:34:38;;;;;;;5.68;2.20;;;;;;;6.84;56.37;101208.03;4943598;28;20513;-74
2023/12/20 03:37:06;;;;;;;7.10;1.80;;;;;;;6.82;56.20;101199.06;4929918;29;20054;-74
2023/12/20 03:39:34;;;;;;;6.32;2.03;;;;;;;6.82;55.95;101194.50;4944141;28;20123;-73
2023/12/20 03:42:02;;;;;;;6.90;2.00;;;;;;;6.81;55.88;101181.00;4938614;28;20047;-74
2023/12/20 03:44:30;;;;;;;6.57;2.20;;;;;;;6.78;55.70;101183.91;4927669;28;20050;-73
2023/12/20 03:47:00;;;;;;;6.10;2.00;;;;;;;6.79;55.88;101182.94;4941499;28;20047;-72
2023/12/20 03:49:28;;;;;;;5.57;1.90;;;;;;;6.76;55.86;101180.44;4938622;28;20126;-73
2023/12/20 03:51:56;;;;;;;6.25;2.03;;;;;;;6.74;55.88;101179.63;4920310;29;20577;-74
2023/12/20 03:54:25;;;;;;;5.30;2.10;;;;;;;6.71;55.67;101183.44;4930040;28;20047;-73
2023/12/20 03:56:53;;;;;;;6.97;1.70;;;;;;;6.70;55.79;101184.41;4943094;29;20039;-73
2023/12/20 03:59:21;;;;;;;6.40;2.20;;;;;;;6.68;55.83;101189.09;4948760;28;20568;-73
2023/12/20 04:01:49;;;;;;;6.40;2.10;;;;;;;6.68;55.73;101186.38;4945069;28;20131;-73
2023/12/20 04:04:19;;;;;;;3.97;1.83;;;;;;;6.68;55.86;101190.94;4941258;28;20054;-73
2023/12/20 04:06:47;;;;;;;6.63;2.00;;;;;;;6.66;56.11;101192.88;4924911;29;20074;-72
2023/12/20 04:09:15;;;;;;;6.25;2.15;;;;;;;6.65;55.69;101199.28;4926529;29;20040;-73
2023/12/20 04:11:43;;;;;;;5.88;1.85;;;;;;;6.65;55.64;101197.44;4934189;29;20067;-73
2023/12/20 04:14:11;;;;;;;4.72;2.10;;;;;;;6.64;56.10;101198.41;4927645;29;20568;-73
2023/12/20 04:16:39;;;;;;;4.65;2.10;;;;;;;6.64;55.80;101186.66;4947577;28;20047;-73
2023/12/20 04:19:10;;;;;;;6.35;2.03;;;;;;;6.62;55.63;101183.16;4939932;28;20075;-73
2023/12/20 04:21:39;;;;;;;5.40;1.95;;;;;;;6.63;55.82;101180.34;4921890;29;20134;-73
2023/12/20 04:24:08;;;;;;;4.70;2.13;;;;;;;6.62;55.54;101185.88;4931325;29;20047;-73
2023/12/20 04:26:36;;;;;;;6.88;2.30;;;;;;;6.61;55.87;101192.31;4939263;29;20095;-73
2023/12/20 04:29:04;;;;;;;7.05;2.20;;;;;;;6.60;55.51;101193.28;4928392;29;20134;-73
2023/12/20 04:31:32;;;;;;;5.55;2.17;;;;;;;6.59;55.98;101196.97;4940556;28;20050;-73
2023/12/20 04:34:00;;;;;;;6.47;2.33;;;;;;;6.60;55.50;101201.44;4945574;29;20051;-73
2023/12/20 04:36:29;;;;;;;4.43;2.30;;;;;;;6.58;55.64;101200.66;4928730;28;20039;-73
2023/12/20 04:38:59;;;;;;;6.05;2.00;;;;;;;6.59;55.54;101205.13;4928897;29;20111;-72
2023/12/20 04:41:27;;;;;;;7.55;2.78;;;;;;;6.56;55.24;101191.72;4948496;28;20043;-72
2023/12/20 04:43:55;;;;;;;7.50;2.85;;;;;;;6.56;55.51;101198.03;4940057;28;20055;-73
2023/12/20 04:46:23;;;;;;;6.13;2.22;;;;;;;6.55;55.60;101192.69;4918859;29;20752;-72
2023/12/20 04:48:51;;;;;;;5.50;2.22;;;;;;;6.55;55.73;101189.97;4942506;28;20088;-72
2023/12/20 04:51:19;;;;;;;5.80;2.47;;;;;;;6.54;55.35;101196.38;4939828;28;20520;-73
2023/12/20 04:53:47;;;;;;;8.10;2.78;;;;;;;6.54;55.34;101199.97;4943758;29;20122;-74
2023/12/20 04:56:16;;;;;;;6.78;2.38;;;;;;;6.55;55.37;101192.69;4928768;29;20127;-73
2023/12/20 04:58:44;;;;;;;5.63;2.53;;;;;;;6.52;55.61;101196.50;4917694;29;20056;-73
2023/12/20 05:01:12;;;;;;;6.80;2.40;;;;;;;6.52;55.48;101198.34;4951802;29;20048;-73
2023/12/20 05:03:40;;;;;;;8.43;2.83;;;;;;;6.52;55.63;101195.63;4946271;29;20070;-73
2023/12/20 05:06:08;;;;;;;7.28;2.45;;;;;;;6.52;55.41;101187.47;4927993;29;20111;-73
2023/12/20 05:08:36;;;;;;;7.35;2.47;;;;;;;6.51;55.26;101189.31;4947634;29;20047;-73
2023/12/20 05:11:05;;;;;;;5.18;2.63;;;;;;;6.52;55.26;101195.63;4949478;28;20047;-71
2023/12/20 05:13:34;;;;;;;7.63;2.60;;;;;;;6.51;55.32;101193.88;4952385;28;20039;-73
2023/12/20 05:16:17;;;;;;;5.95;2.63;;;;;;;6.48;55.16;101196.78;4944924;28;20053;-73
2023/12/20 05:18:46;;;;;;;7.28;2.75;;;;;;;6.47;55.04;101190.47;4946395;28;20048;-72
2023/12/20 05:21:14;;;;;;;9.43;2.65;;;;;;;6.46;55.17;101196.88;4923415;29;20138;-73
2023/12/20 05:23:41;;;;;;;8.32;2.55;;;;;;;6.44;55.50;101197.00;4944648;28;20101;-73
2023/12/20 05:26:09;;;;;;;7.05;2.75;;;;;;;6.45;55.47;101195.13;4939214;28;20059;-73
2023/12/20 05:28:39;;;;;;;7.43;2.45;;;;;;;6.45;55.01;101197.84;4939407;29;20048;-72
2023/12/20 05:31:07;;;;;;;7.65;2.75;;;;;;;6.43;55.11;101205.25;4927354;28;20138;-73
2023/12/20 05:33:35;;;;;;;6.57;2.58;;;;;;;6.42;54.97;101203.50;4942810;28;20525;-72
2023/12/20 05:36:04;;;;;;;7.47;3.13;;;;;;;6.42;55.03;101195.34;4941205;29;20039;-72
2023/12/20 05:38:32;;;;;;;8.73;2.65;;;;;;;6.42;55.17;101193.50;4946682;28;20059;-71
2023/12/20 05:41:00;;;;;;;5.97;2.35;;;;;;;6.40;55.19;101186.41;4941884;29;20099;-73
2023/12/20 05:43:28;;;;;;;5.63;2.40;;;;;;;6.40;55.25;101190.00;4926604;29;20047;-72
2023/12/20 05:45:57;;;;;;;6.45;2.47;;;;;;;6.42;55.36;101187.19;4927268;29;20416;-73
2023/12/20 05:48:26;;;;;;;8.07;2.75;;;;;;;6.39;55.42;101199.13;4928426;29;20046;-71
2023/12/20 05:50:54;;;;;;;6.07;2.60;;;;;;;6.40;55.38;101200.00;4947681;29;20118;-72
2023/12/20 05:53:21;;;;;;;7.78;2.60;;;;;;;6.41;55.67;101190.88;4940496;28;20044;-73
2023/12/20 05:55:49;;;;;;;7.07;2.65;;;;;;;6.41;55.21;101185.44;4938294;29;20072;-72
2023/12/20 05:58:17;;;;;;;6.43;2.40;;;;;;;6.40;55.29;101181.84;4941696;29;20516;-73
2023/12/20 06:00:45;;;;;;;8.90;3.40;;;;;;;6.41;55.31;101188.16;4923171;29;20526;-73
2023/12/20 06:03:15;;;;;;;6.18;2.40;;;;;;;6.43;55.04;101191.66;4946358;28;20078;-73
2023/12/20 06:05:43;;;;;;;10.82;3.22;;;;;;;6.40;55.43;101181.84;4943718;28;20063;-72
2023/12/20 06:08:11;;;;;;;7.97;2.50;;;;;;;6.42;55.10;101189.91;4940868;28;20122;-73
2023/12/20 06:10:40;;;;;;;7.53;2.80;;;;;;;6.41;55.08;101197.19;4923154;29;20047;-74
2023/12/20 06:13:07;;;;;;;8.05;2.55;;;;;;;6.40;55.35;101187.28;4943509;28;20449;-73
2023/12/20 06:15:35;;;;;;;7.07;2.50;;;;;;;6.41;55.28;101196.31;4927742;29;20508;-74
2023/12/20 06:18:04;;;;;;;7.22;2.50;;;;;;;6.42;54.90;101198.06;4933918;29;20071;-74
2023/12/20 06:20:33;;;;;;;7.32;2.70;;;;;;;6.42;55.15;101204.38;4920514;28;20044;-72
2023/12/20 06:23:01;;;;;;;6.20;2.72;;;;;;;6.41;55.07;101199.91;4925979;29;20425;-73
2023/12/20 06:25:29;;;;;;;7.18;2.92;;;;;;;6.41;55.33;101210.78;4939054;29;20035;-72
2023/12/20 06:27:57;;;;;;;7.88;2.83;;;;;;;6.41;55.07;101205.34;4946456;28;20059;-60
2023/12/20 06:30:27;;;;;;;6.93;2.72;;;;;;;6.42;55.64;101196.22;4932617;28;20047;-61
2023/12/20 06:32:57;;;;;;;8.45;3.08;;;;;;;6.43;55.88;101195.25;4937571;29;20047;-73
2023/12/20 06:35:25;;;;;;;6.85;2.80;;;;;;;6.45;55.77;101206.88;4944955;28;20476;-74
2023/12/20 06:37:55;;;;;;;5.88;2.40;;;;;;;6.50;55.91;101201.16;4925170;29;20054;-74
2023/12/20 06:40:22;;;;;;;5.75;2.70;;;;;;;6.51;55.91;101200.19;4924952;29;20075;-74
2023/12/20 06:42:50;;;;;;;6.88;2.88;;;;;;;6.52;55.49;101199.22;4926159;29;20046;-72
2023/12/20 06:45:33;;;;;;;7.57;3.17;;;;;;;6.51;55.40;101200.19;4943585;28;20047;-73
2023/12/20 06:48:01;;;;;;;6.82;2.92;;;;;;;6.55;55.26;101206.28;4927998;29;20040;-73
2023/12/20 06:50:29;;;;;;;8.77;2.97;;;;;;;6.55;55.08;101200.84;4924901;29;20114;-73
2023/12/20 06:52:58;;;;;;;8.63;2.83;;;;;;;6.57;54.88;101201.63;4936864;28;20051;-73
2023/12/20 06:55:26;;;;;;;5.53;2.65;;;;;;;6.55;55.33;101201.72;4943331;28;20039;-72
2023/12/20 06:57:54;;;;;;;6.68;3.05;;;;;;;6.54;55.39;101208.13;4939526;29;20044;-73
2023/12/20 07:00:22;;;;;;;7.60;2.90;;;;;;;6.53;55.09;101203.66;4935495;28;20046;-73
2023/12/20 07:02:53;;;;;;;10.52;3.10;;;;;;;6.53;55.09;101197.38;4948687;23;20047;-85
2023/12/20 07:05:23;;;;;;;7.32;2.95;;;;;;;6.53;55.02;101195.50;4937124;29;20126;-83
2023/12/20 07:07:54;;;;;;;7.57;3.05;;;;;;;6.51;55.18;101202.03;4933237;29;20505;-85
2023/12/20 07:10:24;;;;;;;6.07;2.72;;;;;;;6.53;55.17;101189.22;4934718;29;20047;-82
2023/12/20 07:12:54;;;;;;;7.60;2.92;;;;;;;6.50;55.08;101184.84;4921761;29;20107;-83
2023/12/20 07:15:23;;;;;;;7.20;2.75;;;;;;;6.52;55.18;101195.63;4918259;29;20472;-83
2023/12/20 07:17:52;;;;;;;7.43;2.75;;;;;;;6.51;54.86;101204.75;4920256;29;20426;-84
2023/12/20 07:20:20;;;;;;;7.18;3.03;;;;;;;6.51;55.04;101202.03;4914624;29;20049;-82
2023/12/20 07:22:48;;;;;;;7.75;3.05;;;;;;;6.48;54.80;101189.50;4918118;29;20032;-83
2023/12/20 07:25:16;;;;;;;6.72;2.67;;;;;;;6.50;54.99;101186.69;4920599;29;20501;-83
2023/12/20 07:27:46;;;;;;;7.55;3.25;;;;;;;6.49;54.98;101191.25;4918720;29;20078;-83
2023/12/20 07:30:15;;;;;;;8.80;3.10;;;;;;;6.49;55.09;101196.69;4916402;29;20115;-85
2023/12/20 07:32:43;;;;;;;6.78;3.00;;;;;;;6.50;55.19;101205.72;4928469;29;20054;-84
2023/12/20 07:35:11;;;;;;;9.02;2.85;;;;;;;6.50;55.26;101198.44;4939544;29;20051;-83
2023/12/20 07:37:40;;;;;;;8.30;3.00;;;;;;;6.50;54.72;101205.72;4932872;29;20149;-83
2023/12/20 07:40:09;;;;;;;8.30;2.85;;;;;;;6.49;55.07;101203.97;4932398;29;20040;-83
2023/12/20 07:42:37;;;;;;;10.57;3.03;;;;;;;6.50;55.20;101186.69;4919591;29;20564;-86
2023/12/20 07:45:07;;;;;;;8.00;2.88;;;;;;;6.53;54.79;101190.06;4924857;29;20039;-83
2023/12/20 07:47:36;;;;;;;5.93;2.83;;;;;;;6.49;54.92;101185.81;4919145;29;20091;-84
2023/12/20 07:50:04;;;;;;;9.43;3.05;;;;;;;6.51;55.14;101196.59;4919465;29;20077;-84
2023/12/20 07:52:33;;;;;;;7.15;3.17;;;;;;;6.52;55.12;101196.50;4918011;29;20103;-85
2023/12/20 07:55:01;;;;;;;7.35;3.00;;;;;;;6.51;54.70;101202.03;4919577;29;20111;-86
2023/12/20 07:57:30;;;;;;;5.88;2.72;;;;;;;6.52;54.96;101201.94;4918283;29;20067;-84
2023/12/20 07:59:58;;;;;;;8.70;3.38;;;;;;;6.52;55.02;101199.22;4920372;29;20067;-84
2023/12/20 08:02:28;;;;;;;8.48;3.50;;;;;;;6.55;54.96;101203.56;4918946;29;20618;-83
2023/12/20 08:04:56;;;;;;;7.35;2.70;;;;;;;6.52;54.70;101192.91;4918413;29;20552;-83
2023/12/20 08:07:24;;;;;;;5.35;2.60;;;;;;;6.52;54.69;101201.06;4939049;29;20047;-84
2023/12/20 08:09:52;;;;;;;6.32;3.08;;;;;;;6.55;54.76;101206.28;4917133;29;21730;-82
2023/12/20 08:12:20;;;;;;;7.50;2.83;;;;;;;6.54;54.72;101201.81;4919103;29;20127;-81
2023/12/20 08:14:48;;;;;;;6.55;2.40;;;;;;;6.54;54.86;101201.81;4919190;29;20043;-83
2023/12/20 08:17:18;;;;;;;8.02;2.95;;;;;;;6.54;55.03;101204.53;4934965;29;20048;-83
2023/12/20 08:19:48;;;;;;;6.22;2.85;;;;;;;6.55;54.98;101209.00;4919151;29;20062;-83
2023/12/20 08:22:16;;;;;;;6.07;2.97;;;;;;;6.55;55.26;101209.00;4933643;29;20610;-82
2023/12/20 08:24:45;;;;;;;5.57;2.60;;;;;;;6.58;54.98;101206.09;4918351;29;20147;-83
2023/12/20 08:27:13;;;;;;;5.90;2.90;;;;;;;6.59;54.77;101207.84;4919575;29;20051;-83
2023/12/20 08:29:44;;;;;;;6.30;3.17;;;;;;;6.57;55.00;101199.78;4921337;29;20047;-83
2023/12/20 08:32:13;;;;;;;9.43;2.97;;;;;;;6.57;54.98;101199.78;4931858;29;20052;-82
2023/12/20 08:37:37;;;;;;;9.13;2.95;;;;;;;6.54;54.86;101205.41;4919745;29;20047;-81
2023/12/20 08:40:07;;;;;;;6.13;2.70;;;;;;;6.56;54.79;101200.75;4921884;29;20040;-82
2023/12/20 08:42:35;;;;;;;6.18;2.70;;;;;;;6.57;54.73;101210.66;4937809;29;20048;-83
2023/12/20 08:45:04;;;;;;;9.80;3.10;;;;;;;6.58;54.80;101216.97;4926523;29;20059;-82
2023/12/20 08:47:32;;;;;;;9.10;2.92;;;;;;;6.58;54.88;101225.13;4922888;29;20035;-82
2023/12/20 08:50:01;;;;;;;7.47;3.10;;;;;;;6.58;54.73;101217.84;4932093;29;20047;-83
2023/12/20 08:52:33;;;;;;;6.10;2.85;;;;;;;6.60;54.37;101217.75;4932762;29;20099;-82
2023/12/20 08:55:09;;;;;;;5.88;2.50;;;;;;;6.58;54.14;101217.84;4938820;29;20071;-83
2023/12/20 08:57:42;;;;;;;5.95;2.85;;;;;;;6.56;54.33;101218.91;4917670;29;20485;-82
2023/12/20 09:00:29;;;;;;;7.25;2.97;;;;;;;6.60;54.32;101223.19;4924095;29;20501;-84
2023/12/20 09:03:45;;;;;;;7.55;3.00;;;;;;;6.56;54.17;101216.19;4929664;29;20071;-84
2023/12/20 09:06:17;;;;;;;8.75;2.72;;;;;;;6.53;54.36;101214.53;4924622;29;20489;-83
2023/12/20 09:08:45;;;;;;;6.03;2.53;;;;;;;6.55;54.51;101222.59;4922239;29;20044;-84
2023/12/20 09:11:15;;;;;;;6.63;2.90;;;;;;;6.56;54.43;101211.63;4939955;29;20067;-84
2023/12/20 09:13:44;;;;;;;7.40;3.20;;;;;;;6.53;54.54;101209.09;4930935;29;20047;-84
2023/12/20 09:16:12;;;;;;;9.35;3.05;;;;;;;6.55;54.63;101209.00;4938458;29;20046;-83
2023/12/20 09:18:56;;;;;;;8.32;2.90;;;;;;;6.55;54.34;101204.44;4934570;29;20048;-86
2023/12/20 09:21:24;;;;;;;5.93;2.30;;;;;;;6.53;54.40;101194.66;4937603;29;20205;-85
2023/12/20 09:23:52;;;;;;;7.72;2.80;;;;;;;6.54;54.09;101208.13;4928478;29;20066;-85
2023/12/20 09:26:22;;;;;;;6.95;2.58;;;;;;;6.56;54.41;101192.59;4933749;29;20505;-83
2023/12/20 09:28:50;;;;;;;7.43;2.70;;;;;;;6.54;54.52;101202.69;4946104;29;20050;-83
2023/12/20 09:31:18;;;;;;;8.27;2.80;;;;;;;6.55;54.18;101201.72;4921782;29;20063;-83
2023/12/20 09:33:46;;;;;;;7.40;2.40;;;;;;;6.55;54.61;101196.28;4922788;29;20777;-83
2023/12/20 09:36:14;;;;;;;7.25;2.40;;;;;;;6.56;54.41;101211.63;4932429;29;20669;-85
2023/12/20 09:38:43;;;;;;;6.82;2.72;;;;;;;6.57;54.42;101207.94;4921938;29;20047;-83
2023/12/20 09:41:14;;;;;;;6.70;2.38;;;;;;;6.54;54.20;101205.41;4941141;29;20099;-83
2023/12/20 09:43:44;;;;;;;8.70;2.45;;;;;;;6.57;53.99;101201.63;4923864;29;20524;-82
2023/12/20 09:46:16;;;;;;;6.97;2.47;;;;;;;6.58;54.17;101204.25;4920913;29;20047;-84
2023/12/20 09:48:46;;;;;;;7.60;2.70;;;;;;;6.57;54.18;101197.06;4919609;29;20081;-83
2023/12/20 09:51:14;;;;;;;7.35;2.63;;;;;;;6.58;54.38;101198.81;4921136;29;20566;-83
2023/12/20 09:53:44;;;;;;;10.60;2.70;;;;;;;6.56;54.12;101192.59;4921400;29;20044;-83
2023/12/20 09:56:13;;;;;;;7.57;2.30;;;;;;;6.59;54.34;101192.41;4918270;29;20070;-84
2023/12/20 09:58:41;;;;;;;6.53;2.33;;;;;;;6.58;54.52;101197.94;4919738;29;20603;-83
2023/12/20 10:01:11;;;;;;;7.03;2.60;;;;;;;6.60;54.03;101202.31;4919069;29;20053;-83
2023/12/20 10:03:42;;;;;;;8.20;2.28;;;;;;;6.60;54.05;101188.72;4924313;29;20044;-83
2023/12/20 10:06:11;;;;;;;5.18;2.50;;;;;;;6.60;54.18;101202.31;4920822;29;20051;-84
2023/12/20 10:08:40;;;;;;;6.10;2.20;;;;;;;6.58;54.36;101193.38;4919944;29;20051;-82
2023/12/20 10:11:08;;;;;;;6.25;2.13;;;;;;;6.59;54.43;101194.25;4918988;29;20413;-83
2023/12/20 10:13:40;;;;;;;5.78;2.75;;;;;;;6.61;54.05;101195.03;4919381;29;20048;-83
2023/12/20 10:16:09;;;;;;;6.15;2.40;;;;;;;6.59;54.07;101208.72;4918197;29;20040;-82
2023/12/20 10:18:38;;;;;;;5.57;2.15;;;;;;;6.59;53.94;101195.13;4918333;29;20040;-83
2023/12/20 10:21:09;;;;;;;6.28;2.30;;;;;;;6.60;54.16;101198.72;4919428;29;20047;-83
2023/12/20 10:23:39;;;;;;;6.88;2.10;;;;;;;6.60;54.16;101185.13;4920641;29;20051;-83
2023/12/20 10:26:07;;;;;;;7.40;2.58;;;;;;;6.59;54.16;101191.53;4923830;29;20103;-83
2023/12/20 10:28:36;;;;;;;5.95;2.13;;;;;;;6.62;54.23;101196.75;4932550;29;20648;-84
2023/12/20 10:31:04;;;;;;;7.88;2.08;;;;;;;6.60;53.96;101182.41;4919551;29;20044;-82
2023/12/20 10:33:33;;;;;;;6.28;2.58;;;;;;;6.62;54.07;101191.31;4919788;29;20047;-83
2023/12/20 10:36:03;;;;;;;7.15;2.55;;;;;;;6.61;54.20;101165.97;4920207;29;20126;-84
2023/12/20 10:38:31;;;;;;;9.40;2.40;;;;;;;6.60;54.25;101166.09;4919350;29;20058;-83
2023/12/20 10:41:00;;;;;;;5.40;2.00;;;;;;;6.61;54.17;101168.69;4918190;29;20078;-84
2023/12/20 10:43:30;;;;;;;5.07;2.22;;;;;;;6.62;54.10;101156.84;4917607;29;20040;-82
2023/12/20 10:46:00;;;;;;;7.40;2.40;;;;;;;6.62;54.17;101173.16;4918823;29;20048;-83
2023/12/20 10:48:31;;;;;;;6.63;2.78;;;;;;;6.64;54.20;101157.63;4917903;29;20043;-82
2023/12/20 10:51:02;;;;;;;7.85;2.30;;;;;;;6.61;54.25;101160.53;4917794;29;20048;-83
2023/12/20 10:53:30;;;;;;;6.75;2.40;;;;;;;6.63;54.09;101160.44;4920115;29;20470;-82
2023/12/20 10:56:03;;;;;;;5.95;2.03;;;;;;;6.65;53.88;101162.09;4915027;29;20076;-84
2023/12/20 10:58:34;;;;;;;6.35;2.70;;;;;;;6.65;54.17;101144.88;4925292;29;20072;-85
2023/12/20 11:01:02;;;;;;;8.30;2.35;;;;;;;6.64;53.88;101152.19;4933216;29;20048;-82
2023/12/20 11:03:35;;;;;;;7.22;3.03;;;;;;;6.66;53.93;101155.69;4934300;29;20058;-84
2023/12/20 11:06:14;;;;;;;4.97;2.22;;;;;;;6.64;53.98;101160.34;4949823;29;20048;-82
2023/12/20 11:08:52;;;;;;;8.75;2.47;;;;;;;6.66;53.70;101161.13;4923841;29;20110;-83
2023/12/20 11:11:27;;;;;;;4.72;2.10;;;;;;;6.67;53.63;101171.03;4924020;29;20131;-81
2023/12/20 11:13:58;;;;;;;7.28;2.10;;;;;;;6.69;54.02;101166.38;4923756;29;20396;-83
2023/12/20 11:16:26;;;;;;;7.50;2.40;;;;;;;6.68;54.02;101161.88;4928223;29;20162;-82
2023/12/20 11:19:06;;;;;;;9.77;2.58;;;;;;;6.66;54.01;101152.06;4916102;29;20043;-82
2023/12/20 11:21:36;;;;;;;7.75;2.42;;;;;;;6.65;54.01;101151.19;4918436;29;20126;-81
2023/12/20 11:24:06;;;;;;;5.50;2.05;;;;;;;6.70;53.93;101151.75;4925744;29;20051;-82
2023/12/20 11:26:34;;;;;;;6.30;2.28;;;;;;;6.71;54.29;101147.19;4937343;29;20043;-83
2023/12/20 11:29:33;;;;;;;7.93;2.38;;;;;;;6.73;53.63;101143.41;4935639;29;20055;-81
2023/12/20 11:32:29;;;;;;;5.95;2.42;;;;;;;6.68;54.02;101145.56;4919199;29;20043;-81
2023/12/20 11:34:59;;;;;;;5.88;2.45;;;;;;;6.70;54.37;101142.72;4924398;29;20099;-81
2023/12/20 11:37:32;;;;;;;7.30;2.67;;;;;;;6.73;54.14;101140.69;4922480;29;20563;-81
2023/12/20 11:40:03;;;;;;;7.30;2.45;;;;;;;6.71;54.03;101134.47;4921780;29;20387;-81
2023/12/20 11:42:34;;;;;;;6.60;2.30;;;;;;;6.72;53.83;101138.94;4924414;29;20058;-82
2023/12/20 11:45:03;;;;;;;6.07;2.45;;;;;;;6.72;54.17;101132.63;4936669;29;20043;-81
2023/12/20 11:47:32;;;;;;;9.07;2.60;;;;;;;6.73;54.35;101131.66;4921041;29;20112;-86